sensor_id;sensor_type;location;lat;lon;timestamp;P1;durP1;ratioP1;P2;durP2;ratioP2
58553;SDS011;48119;53.218;6.576;2023-05-07T00:00:45;21.92;;;15.57;;
58553;SDS011;48119;53.218;6.576;2023-05-07T00:03:12;22.70;;;15.43;;
58553;SDS011;48119;53.218;6.576;2023-05-07T00:05:39;18.20;;;13.95;;
58553;SDS011;48119;53.218;6.576;2023-05-07T00:08:05;21.80;;;15.05;;
58553;SDS011;48119;53.218;6.576;2023-05-07T00:10:30;16.95;;;14.68;;
58553;SDS011;48119;53.218;6.576;2023-05-07T00:12:56;17.48;;;14.75;;
58553;SDS011;48119;53.218;6.576;2023-05-07T00:15:22;18.45;;;14.65;;
58553;SDS011;48119;53.218;6.576;2023-05-07T00:17:48;18.33;;;14.57;;
58553;SDS011;48119;53.218;6.576;2023-05-07T00:20:16;20.80;;;14.70;;
58553;SDS011;48119;53.218;6.576;2023-05-07T00:22:42;19.63;;;14.10;;
58553;SDS011;48119;53.218;6.576;2023-05-07T00:25:08;19.63;;;14.18;;
58553;SDS011;48119;53.218;6.576;2023-05-07T00:27:35;19.70;;;14.52;;
58553;SDS011;48119;53.218;6.576;2023-05-07T00:30:01;21.30;;;16.27;;
58553;SDS011;48119;53.218;6.576;2023-05-07T00:32:26;17.42;;;14.57;;
58553;SDS011;48119;53.218;6.576;2023-05-07T00:34:52;21.02;;;15.02;;
58553;SDS011;48119;53.218;6.576;2023-05-07T00:37:18;20.70;;;16.00;;
58553;SDS011;48119;53.218;6.576;2023-05-07T00:39:44;21.63;;;15.73;;
58553;SDS011;48119;53.218;6.576;2023-05-07T00:42:09;21.23;;;15.15;;
58553;SDS011;48119;53.218;6.576;2023-05-07T00:44:35;20.30;;;15.45;;
58553;SDS011;48119;53.218;6.576;2023-05-07T00:47:04;19.83;;;15.32;;
58553;SDS011;48119;53.218;6.576;2023-05-07T00:49:36;24.13;;;16.83;;
58553;SDS011;48119;53.218;6.576;2023-05-07T00:52:06;24.77;;;17.17;;
58553;SDS011;48119;53.218;6.576;2023-05-07T00:54:33;21.27;;;16.63;;
58553;SDS011;48119;53.218;6.576;2023-05-07T00:56:59;22.80;;;16.10;;
58553;SDS011;48119;53.218;6.576;2023-05-07T00:59:27;18.70;;;14.38;;
58553;SDS011;48119;53.218;6.576;2023-05-07T01:01:53;23.75;;;17.40;;
58553;SDS011;48119;53.218;6.576;2023-05-07T01:04:19;19.60;;;16.33;;
58553;SDS011;48119;53.218;6.576;2023-05-07T01:06:44;22.70;;;17.25;;
58553;SDS011;48119;53.218;6.576;2023-05-07T01:09:11;22.15;;;15.65;;
58553;SDS011;48119;53.218;6.576;2023-05-07T01:11:38;20.20;;;15.93;;
58553;SDS011;48119;53.218;6.576;2023-05-07T01:14:04;24.08;;;16.88;;
58553;SDS011;48119;53.218;6.576;2023-05-07T01:16:32;24.90;;;16.92;;
58553;SDS011;48119;53.218;6.576;2023-05-07T01:18:58;19.75;;;16.15;;
58553;SDS011;48119;53.218;6.576;2023-05-07T01:21:25;24.45;;;18.33;;
58553;SDS011;48119;53.218;6.576;2023-05-07T01:23:52;23.73;;;18.73;;
58553;SDS011;48119;53.218;6.576;2023-05-07T01:26:20;21.58;;;17.13;;
58553;SDS011;48119;53.218;6.576;2023-05-07T01:28:47;21.67;;;16.83;;
58553;SDS011;48119;53.218;6.576;2023-05-07T01:31:13;25.98;;;19.15;;
58553;SDS011;48119;53.218;6.576;2023-05-07T01:33:40;21.25;;;17.83;;
58553;SDS011;48119;53.218;6.576;2023-05-07T01:36:08;21.90;;;17.05;;
58553;SDS011;48119;53.218;6.576;2023-05-07T01:38:36;22.50;;;18.08;;
58553;SDS011;48119;53.218;6.576;2023-05-07T01:41:03;21.48;;;17.52;;
58553;SDS011;48119;53.218;6.576;2023-05-07T01:43:29;24.27;;;17.15;;
58553;SDS011;48119;53.218;6.576;2023-05-07T01:45:56;26.58;;;17.65;;
58553;SDS011;48119;53.218;6.576;2023-05-07T01:48:24;18.63;;;15.82;;
58553;SDS011;48119;53.218;6.576;2023-05-07T01:50:50;23.45;;;16.92;;
58553;SDS011;48119;53.218;6.576;2023-05-07T01:53:17;21.42;;;16.75;;
58553;SDS011;48119;53.218;6.576;2023-05-07T01:55:43;20.30;;;16.02;;
58553;SDS011;48119;53.218;6.576;2023-05-07T01:58:09;23.63;;;16.70;;
58553;SDS011;48119;53.218;6.576;2023-05-07T02:00:35;22.83;;;16.27;;
58553;SDS011;48119;53.218;6.576;2023-05-07T02:03:01;22.45;;;16.98;;
58553;SDS011;48119;53.218;6.576;2023-05-07T02:05:27;22.15;;;16.83;;
58553;SDS011;48119;53.218;6.576;2023-05-07T02:07:53;20.20;;;16.42;;
58553;SDS011;48119;53.218;6.576;2023-05-07T02:10:18;20.85;;;16.13;;
58553;SDS011;48119;53.218;6.576;2023-05-07T02:12:44;22.13;;;17.35;;
58553;SDS011;48119;53.218;6.576;2023-05-07T02:15:10;20.55;;;16.10;;
58553;SDS011;48119;53.218;6.576;2023-05-07T02:17:39;20.48;;;16.42;;
58553;SDS011;48119;53.218;6.576;2023-05-07T02:20:23;24.38;;;17.13;;
58553;SDS011;48119;53.218;6.576;2023-05-07T02:22:50;22.95;;;16.15;;
58553;SDS011;48119;53.218;6.576;2023-05-07T02:25:15;25.85;;;18.13;;
58553;SDS011;48119;53.218;6.576;2023-05-07T02:27:41;25.48;;;18.20;;
58553;SDS011;48119;53.218;6.576;2023-05-07T02:30:07;25.88;;;16.30;;
58553;SDS011;48119;53.218;6.576;2023-05-07T02:32:33;21.08;;;17.98;;
58553;SDS011;48119;53.218;6.576;2023-05-07T02:34:58;24.73;;;17.50;;
58553;SDS011;48119;53.218;6.576;2023-05-07T02:37:24;22.85;;;17.52;;
58553;SDS011;48119;53.218;6.576;2023-05-07T02:39:50;19.45;;;15.85;;
58553;SDS011;48119;53.218;6.576;2023-05-07T02:42:16;22.08;;;16.90;;
58553;SDS011;48119;53.218;6.576;2023-05-07T02:44:41;24.40;;;17.60;;
58553;SDS011;48119;53.218;6.576;2023-05-07T02:47:07;24.27;;;18.17;;
58553;SDS011;48119;53.218;6.576;2023-05-07T02:49:34;22.02;;;17.38;;
58553;SDS011;48119;53.218;6.576;2023-05-07T02:52:01;24.48;;;18.55;;
58553;SDS011;48119;53.218;6.576;2023-05-07T02:54:26;22.25;;;17.23;;
58553;SDS011;48119;53.218;6.576;2023-05-07T02:56:52;21.85;;;18.02;;
58553;SDS011;48119;53.218;6.576;2023-05-07T02:59:18;25.70;;;18.75;;
58553;SDS011;48119;53.218;6.576;2023-05-07T03:01:45;25.58;;;19.08;;
58553;SDS011;48119;53.218;6.576;2023-05-07T03:04:11;21.70;;;17.27;;
58553;SDS011;48119;53.218;6.576;2023-05-07T03:06:36;24.50;;;17.75;;
58553;SDS011;48119;53.218;6.576;2023-05-07T03:09:02;23.23;;;17.00;;
58553;SDS011;48119;53.218;6.576;2023-05-07T03:11:28;21.00;;;17.25;;
58553;SDS011;48119;53.218;6.576;2023-05-07T03:13:54;24.38;;;18.27;;
58553;SDS011;48119;53.218;6.576;2023-05-07T03:16:19;24.10;;;17.58;;
58553;SDS011;48119;53.218;6.576;2023-05-07T03:18:45;29.45;;;16.77;;
58553;SDS011;48119;53.218;6.576;2023-05-07T03:21:11;28.15;;;19.52;;
58553;SDS011;48119;53.218;6.576;2023-05-07T03:23:37;25.30;;;19.17;;
58553;SDS011;48119;53.218;6.576;2023-05-07T03:26:03;19.55;;;15.90;;
58553;SDS011;48119;53.218;6.576;2023-05-07T03:28:29;27.00;;;18.92;;
58553;SDS011;48119;53.218;6.576;2023-05-07T03:30:54;25.67;;;18.17;;
58553;SDS011;48119;53.218;6.576;2023-05-07T03:33:20;25.63;;;17.40;;
58553;SDS011;48119;53.218;6.576;2023-05-07T03:35:46;20.15;;;16.30;;
58553;SDS011;48119;53.218;6.576;2023-05-07T03:38:12;23.63;;;17.77;;
58553;SDS011;48119;53.218;6.576;2023-05-07T03:40:37;22.45;;;17.40;;
58553;SDS011;48119;53.218;6.576;2023-05-07T03:43:03;24.00;;;17.45;;
58553;SDS011;48119;53.218;6.576;2023-05-07T03:45:29;21.67;;;18.25;;
58553;SDS011;48119;53.218;6.576;2023-05-07T03:47:55;22.83;;;17.30;;
58553;SDS011;48119;53.218;6.576;2023-05-07T03:50:20;28.48;;;18.65;;
58553;SDS011;48119;53.218;6.576;2023-05-07T03:52:46;23.70;;;18.10;;
58553;SDS011;48119;53.218;6.576;2023-05-07T03:55:12;23.95;;;17.50;;
58553;SDS011;48119;53.218;6.576;2023-05-07T03:57:38;24.00;;;19.83;;
58553;SDS011;48119;53.218;6.576;2023-05-07T04:00:03;25.13;;;18.95;;
58553;SDS011;48119;53.218;6.576;2023-05-07T04:02:30;23.52;;;18.38;;
58553;SDS011;48119;53.218;6.576;2023-05-07T04:04:56;24.27;;;17.92;;
58553;SDS011;48119;53.218;6.576;2023-05-07T04:07:22;27.50;;;19.30;;
58553;SDS011;48119;53.218;6.576;2023-05-07T04:09:47;21.73;;;16.42;;
58553;SDS011;48119;53.218;6.576;2023-05-07T04:12:13;24.00;;;18.63;;
58553;SDS011;48119;53.218;6.576;2023-05-07T04:14:40;26.23;;;18.77;;
58553;SDS011;48119;53.218;6.576;2023-05-07T04:17:05;24.10;;;17.85;;
58553;SDS011;48119;53.218;6.576;2023-05-07T04:19:33;23.27;;;17.75;;
58553;SDS011;48119;53.218;6.576;2023-05-07T04:21:58;24.25;;;18.40;;
58553;SDS011;48119;53.218;6.576;2023-05-07T04:24:24;23.38;;;17.98;;
58553;SDS011;48119;53.218;6.576;2023-05-07T04:26:50;25.73;;;17.67;;
58553;SDS011;48119;53.218;6.576;2023-05-07T04:29:16;26.23;;;18.13;;
58553;SDS011;48119;53.218;6.576;2023-05-07T04:31:42;23.63;;;18.13;;
58553;SDS011;48119;53.218;6.576;2023-05-07T04:34:12;23.52;;;17.33;;
58553;SDS011;48119;53.218;6.576;2023-05-07T04:36:39;23.05;;;16.75;;
58553;SDS011;48119;53.218;6.576;2023-05-07T04:39:05;24.65;;;16.92;;
58553;SDS011;48119;53.218;6.576;2023-05-07T04:41:31;23.23;;;16.30;;
58553;SDS011;48119;53.218;6.576;2023-05-07T04:43:57;22.15;;;17.33;;
58553;SDS011;48119;53.218;6.576;2023-05-07T04:46:24;19.45;;;15.88;;
58553;SDS011;48119;53.218;6.576;2023-05-07T04:48:50;20.83;;;16.50;;
58553;SDS011;48119;53.218;6.576;2023-05-07T04:51:16;23.08;;;18.25;;
58553;SDS011;48119;53.218;6.576;2023-05-07T04:53:42;20.35;;;15.88;;
58553;SDS011;48119;53.218;6.576;2023-05-07T04:56:08;22.10;;;16.10;;
58553;SDS011;48119;53.218;6.576;2023-05-07T04:58:34;22.88;;;16.95;;
58553;SDS011;48119;53.218;6.576;2023-05-07T05:01:00;21.63;;;16.20;;
58553;SDS011;48119;53.218;6.576;2023-05-07T05:03:26;20.00;;;15.80;;
58553;SDS011;48119;53.218;6.576;2023-05-07T05:05:52;20.20;;;16.55;;
58553;SDS011;48119;53.218;6.576;2023-05-07T05:08:18;19.50;;;15.13;;
58553;SDS011;48119;53.218;6.576;2023-05-07T05:10:44;20.30;;;14.90;;
58553;SDS011;48119;53.218;6.576;2023-05-07T05:13:10;23.65;;;16.75;;
58553;SDS011;48119;53.218;6.576;2023-05-07T05:15:38;21.58;;;16.75;;
58553;SDS011;48119;53.218;6.576;2023-05-07T05:18:04;19.95;;;15.32;;
58553;SDS011;48119;53.218;6.576;2023-05-07T05:20:30;21.38;;;16.33;;
58553;SDS011;48119;53.218;6.576;2023-05-07T05:22:56;23.10;;;17.42;;
58553;SDS011;48119;53.218;6.576;2023-05-07T05:25:22;18.13;;;15.00;;
58553;SDS011;48119;53.218;6.576;2023-05-07T05:27:47;21.40;;;16.23;;
58553;SDS011;48119;53.218;6.576;2023-05-07T05:30:13;21.30;;;16.88;;
58553;SDS011;48119;53.218;6.576;2023-05-07T05:32:39;22.25;;;16.65;;
58553;SDS011;48119;53.218;6.576;2023-05-07T05:35:05;21.38;;;15.52;;
58553;SDS011;48119;53.218;6.576;2023-05-07T05:37:31;21.73;;;16.15;;
58553;SDS011;48119;53.218;6.576;2023-05-07T05:39:57;18.92;;;14.63;;
58553;SDS011;48119;53.218;6.576;2023-05-07T05:42:23;23.25;;;16.80;;
58553;SDS011;48119;53.218;6.576;2023-05-07T05:44:48;19.48;;;15.88;;
58553;SDS011;48119;53.218;6.576;2023-05-07T05:47:14;18.35;;;14.98;;
58553;SDS011;48119;53.218;6.576;2023-05-07T05:49:40;19.50;;;15.35;;
58553;SDS011;48119;53.218;6.576;2023-05-07T05:52:08;18.60;;;14.40;;
58553;SDS011;48119;53.218;6.576;2023-05-07T05:54:39;19.92;;;15.23;;
58553;SDS011;48119;53.218;6.576;2023-05-07T05:57:04;17.48;;;15.07;;
58553;SDS011;48119;53.218;6.576;2023-05-07T05:59:31;19.63;;;15.02;;
58553;SDS011;48119;53.218;6.576;2023-05-07T06:01:56;19.50;;;15.15;;
58553;SDS011;48119;53.218;6.576;2023-05-07T06:04:22;20.70;;;14.98;;
58553;SDS011;48119;53.218;6.576;2023-05-07T06:06:48;20.48;;;15.05;;
58553;SDS011;48119;53.218;6.576;2023-05-07T06:09:14;18.20;;;13.80;;
58553;SDS011;48119;53.218;6.576;2023-05-07T06:11:39;20.88;;;14.80;;
58553;SDS011;48119;53.218;6.576;2023-05-07T06:14:06;19.42;;;15.50;;
58553;SDS011;48119;53.218;6.576;2023-05-07T06:16:31;19.85;;;14.98;;
58553;SDS011;48119;53.218;6.576;2023-05-07T06:18:58;18.15;;;14.82;;
58553;SDS011;48119;53.218;6.576;2023-05-07T06:21:23;18.20;;;14.30;;
58553;SDS011;48119;53.218;6.576;2023-05-07T06:23:49;19.95;;;14.73;;
58553;SDS011;48119;53.218;6.576;2023-05-07T06:26:17;22.20;;;15.52;;
58553;SDS011;48119;53.218;6.576;2023-05-07T06:28:43;20.20;;;16.38;;
58553;SDS011;48119;53.218;6.576;2023-05-07T06:31:12;19.77;;;14.13;;
58553;SDS011;48119;53.218;6.576;2023-05-07T06:33:42;18.65;;;16.25;;
58553;SDS011;48119;53.218;6.576;2023-05-07T06:36:09;19.63;;;16.15;;
58553;SDS011;48119;53.218;6.576;2023-05-07T06:38:35;21.50;;;16.60;;
58553;SDS011;48119;53.218;6.576;2023-05-07T06:41:01;21.80;;;16.17;;
58553;SDS011;48119;53.218;6.576;2023-05-07T06:43:27;21.70;;;17.10;;
58553;SDS011;48119;53.218;6.576;2023-05-07T06:45:53;21.35;;;16.20;;
58553;SDS011;48119;53.218;6.576;2023-05-07T06:48:18;20.60;;;15.57;;
58553;SDS011;48119;53.218;6.576;2023-05-07T06:50:44;19.60;;;16.20;;
58553;SDS011;48119;53.218;6.576;2023-05-07T06:53:10;22.48;;;16.77;;
58553;SDS011;48119;53.218;6.576;2023-05-07T06:55:36;22.35;;;17.13;;
58553;SDS011;48119;53.218;6.576;2023-05-07T06:58:03;21.75;;;17.15;;
58553;SDS011;48119;53.218;6.576;2023-05-07T07:00:29;20.15;;;15.38;;
58553;SDS011;48119;53.218;6.576;2023-05-07T07:02:56;21.85;;;16.48;;
58553;SDS011;48119;53.218;6.576;2023-05-07T07:05:22;19.98;;;15.32;;
58553;SDS011;48119;53.218;6.576;2023-05-07T07:07:47;19.83;;;14.73;;
58553;SDS011;48119;53.218;6.576;2023-05-07T07:10:20;20.80;;;15.35;;
58553;SDS011;48119;53.218;6.576;2023-05-07T07:12:47;20.17;;;15.90;;
58553;SDS011;48119;53.218;6.576;2023-05-07T07:15:13;19.48;;;14.52;;
58553;SDS011;48119;53.218;6.576;2023-05-07T07:17:40;20.45;;;15.70;;
58553;SDS011;48119;53.218;6.576;2023-05-07T07:20:06;21.15;;;15.38;;
58553;SDS011;48119;53.218;6.576;2023-05-07T07:22:32;19.33;;;14.88;;
58553;SDS011;48119;53.218;6.576;2023-05-07T07:24:58;23.13;;;16.20;;
58553;SDS011;48119;53.218;6.576;2023-05-07T07:27:24;20.05;;;15.48;;
58553;SDS011;48119;53.218;6.576;2023-05-07T07:29:49;20.65;;;14.57;;
58553;SDS011;48119;53.218;6.576;2023-05-07T07:32:15;20.10;;;14.63;;
58553;SDS011;48119;53.218;6.576;2023-05-07T07:34:41;20.35;;;15.77;;
58553;SDS011;48119;53.218;6.576;2023-05-07T07:37:07;19.95;;;15.40;;
58553;SDS011;48119;53.218;6.576;2023-05-07T07:39:33;20.27;;;15.57;;
58553;SDS011;48119;53.218;6.576;2023-05-07T07:41:59;22.38;;;16.50;;
58553;SDS011;48119;53.218;6.576;2023-05-07T07:44:25;22.55;;;15.90;;
58553;SDS011;48119;53.218;6.576;2023-05-07T07:46:52;22.27;;;15.88;;
58553;SDS011;48119;53.218;6.576;2023-05-07T07:49:18;21.48;;;16.25;;
58553;SDS011;48119;53.218;6.576;2023-05-07T07:51:44;22.77;;;17.10;;
58553;SDS011;48119;53.218;6.576;2023-05-07T07:54:10;19.42;;;15.20;;
58553;SDS011;48119;53.218;6.576;2023-05-07T07:56:36;21.63;;;16.23;;
58553;SDS011;48119;53.218;6.576;2023-05-07T07:59:03;23.95;;;16.67;;
58553;SDS011;48119;53.218;6.576;2023-05-07T08:01:30;22.95;;;17.02;;
58553;SDS011;48119;53.218;6.576;2023-05-07T08:03:56;21.02;;;16.20;;
58553;SDS011;48119;53.218;6.576;2023-05-07T08:06:23;23.48;;;17.13;;
58553;SDS011;48119;53.218;6.576;2023-05-07T08:08:50;24.30;;;17.05;;
58553;SDS011;48119;53.218;6.576;2023-05-07T08:11:17;22.17;;;17.40;;
58553;SDS011;48119;53.218;6.576;2023-05-07T08:13:42;21.65;;;15.40;;
58553;SDS011;48119;53.218;6.576;2023-05-07T08:16:09;23.33;;;17.60;;
58553;SDS011;48119;53.218;6.576;2023-05-07T08:18:35;24.77;;;17.70;;
58553;SDS011;48119;53.218;6.576;2023-05-07T08:21:01;23.52;;;17.58;;
58553;SDS011;48119;53.218;6.576;2023-05-07T08:23:27;21.48;;;16.50;;
58553;SDS011;48119;53.218;6.576;2023-05-07T08:25:53;26.77;;;18.48;;
58553;SDS011;48119;53.218;6.576;2023-05-07T08:28:18;24.27;;;16.92;;
58553;SDS011;48119;53.218;6.576;2023-05-07T08:30:45;26.15;;;17.50;;
58553;SDS011;48119;53.218;6.576;2023-05-07T08:33:11;23.80;;;17.77;;
58553;SDS011;48119;53.218;6.576;2023-05-07T08:35:37;23.95;;;17.38;;
58553;SDS011;48119;53.218;6.576;2023-05-07T08:38:03;21.80;;;15.27;;
58553;SDS011;48119;53.218;6.576;2023-05-07T08:40:29;19.73;;;16.10;;
58553;SDS011;48119;53.218;6.576;2023-05-07T08:43:01;22.38;;;17.50;;
58553;SDS011;48119;53.218;6.576;2023-05-07T08:45:28;26.27;;;17.83;;
58553;SDS011;48119;53.218;6.576;2023-05-07T08:47:58;21.17;;;15.70;;
58553;SDS011;48119;53.218;6.576;2023-05-07T08:50:26;21.20;;;16.85;;
58553;SDS011;48119;53.218;6.576;2023-05-07T08:52:52;22.77;;;16.00;;
58553;SDS011;48119;53.218;6.576;2023-05-07T08:55:18;21.45;;;16.60;;
58553;SDS011;48119;53.218;6.576;2023-05-07T08:57:45;24.70;;;17.45;;
58553;SDS011;48119;53.218;6.576;2023-05-07T09:00:13;22.35;;;16.35;;
58553;SDS011;48119;53.218;6.576;2023-05-07T09:02:39;23.55;;;17.65;;
58553;SDS011;48119;53.218;6.576;2023-05-07T09:05:05;24.92;;;17.38;;
58553;SDS011;48119;53.218;6.576;2023-05-07T09:07:32;24.63;;;17.83;;
58553;SDS011;48119;53.218;6.576;2023-05-07T09:09:58;25.00;;;17.38;;
58553;SDS011;48119;53.218;6.576;2023-05-07T09:12:25;22.70;;;16.98;;
58553;SDS011;48119;53.218;6.576;2023-05-07T09:14:51;20.80;;;15.85;;
58553;SDS011;48119;53.218;6.576;2023-05-07T09:17:17;21.05;;;16.50;;
58553;SDS011;48119;53.218;6.576;2023-05-07T09:19:43;23.77;;;17.85;;
58553;SDS011;48119;53.218;6.576;2023-05-07T09:22:10;22.73;;;17.48;;
58553;SDS011;48119;53.218;6.576;2023-05-07T09:24:37;26.80;;;17.58;;
58553;SDS011;48119;53.218;6.576;2023-05-07T09:27:03;26.42;;;16.38;;
58553;SDS011;48119;53.218;6.576;2023-05-07T09:29:31;20.83;;;16.42;;
58553;SDS011;48119;53.218;6.576;2023-05-07T09:32:01;24.63;;;17.20;;
58553;SDS011;48119;53.218;6.576;2023-05-07T09:34:28;21.70;;;17.27;;
58553;SDS011;48119;53.218;6.576;2023-05-07T09:36:55;24.73;;;18.60;;
58553;SDS011;48119;53.218;6.576;2023-05-07T09:39:22;24.00;;;17.92;;
58553;SDS011;48119;53.218;6.576;2023-05-07T09:41:49;29.13;;;17.75;;
58553;SDS011;48119;53.218;6.576;2023-05-07T09:44:16;27.55;;;18.10;;
58553;SDS011;48119;53.218;6.576;2023-05-07T09:46:43;22.17;;;17.10;;
58553;SDS011;48119;53.218;6.576;2023-05-07T09:49:18;23.50;;;17.60;;
58553;SDS011;48119;53.218;6.576;2023-05-07T09:51:50;26.25;;;17.83;;
58553;SDS011;48119;53.218;6.576;2023-05-07T09:54:17;25.15;;;18.05;;
58553;SDS011;48119;53.218;6.576;2023-05-07T09:56:49;21.35;;;16.63;;
58553;SDS011;48119;53.218;6.576;2023-05-07T09:59:18;25.77;;;18.15;;
58553;SDS011;48119;53.218;6.576;2023-05-07T10:01:45;25.45;;;18.00;;
58553;SDS011;48119;53.218;6.576;2023-05-07T10:04:11;21.85;;;16.33;;
58553;SDS011;48119;53.218;6.576;2023-05-07T10:06:37;25.02;;;17.88;;
58553;SDS011;48119;53.218;6.576;2023-05-07T10:09:04;19.67;;;16.13;;
58553;SDS011;48119;53.218;6.576;2023-05-07T10:11:33;22.02;;;16.88;;
58553;SDS011;48119;53.218;6.576;2023-05-07T10:14:03;20.58;;;16.10;;
58553;SDS011;48119;53.218;6.576;2023-05-07T10:16:34;21.77;;;16.63;;
58553;SDS011;48119;53.218;6.576;2023-05-07T10:19:04;20.63;;;15.65;;
58553;SDS011;48119;53.218;6.576;2023-05-07T10:21:31;21.25;;;16.85;;
58553;SDS011;48119;53.218;6.576;2023-05-07T10:24:20;23.33;;;16.95;;
58553;SDS011;48119;53.218;6.576;2023-05-07T10:27:05;22.13;;;16.90;;
58553;SDS011;48119;53.218;6.576;2023-05-07T10:32:39;19.60;;;15.18;;
58553;SDS011;48119;53.218;6.576;2023-05-07T10:35:11;21.70;;;17.13;;
58553;SDS011;48119;53.218;6.576;2023-05-07T10:37:42;21.58;;;16.73;;
58553;SDS011;48119;53.218;6.576;2023-05-07T10:40:10;23.98;;;17.63;;
58553;SDS011;48119;53.218;6.576;2023-05-07T10:42:37;21.98;;;15.98;;
58553;SDS011;48119;53.218;6.576;2023-05-07T10:45:12;20.90;;;15.85;;
58553;SDS011;48119;53.218;6.576;2023-05-07T10:48:24;20.13;;;15.30;;
58553;SDS011;48119;53.218;6.576;2023-05-07T10:50:39;18.80;;;15.38;;
58553;SDS011;48119;53.218;6.576;2023-05-07T10:55:44;20.80;;;17.25;;
58553;SDS011;48119;53.218;6.576;2023-05-07T10:58:26;21.17;;;15.50;;
58553;SDS011;48119;53.218;6.576;2023-05-07T11:00:56;20.17;;;15.70;;
58553;SDS011;48119;53.218;6.576;2023-05-07T11:03:24;20.98;;;16.20;;
58553;SDS011;48119;53.218;6.576;2023-05-07T11:06:09;20.27;;;15.60;;
58553;SDS011;48119;53.218;6.576;2023-05-07T11:08:57;19.92;;;16.10;;
58553;SDS011;48119;53.218;6.576;2023-05-07T11:14:42;18.75;;;15.30;;
58553;SDS011;48119;53.218;6.576;2023-05-07T11:17:09;18.75;;;15.27;;
58553;SDS011;48119;53.218;6.576;2023-05-07T11:20:09;17.60;;;13.93;;
58553;SDS011;48119;53.218;6.576;2023-05-07T11:25:05;17.40;;;14.00;;
58553;SDS011;48119;53.218;6.576;2023-05-07T11:27:31;19.30;;;13.55;;
58553;SDS011;48119;53.218;6.576;2023-05-07T11:29:58;18.85;;;15.18;;
58553;SDS011;48119;53.218;6.576;2023-05-07T11:32:24;20.98;;;15.52;;
58553;SDS011;48119;53.218;6.576;2023-05-07T11:34:51;19.42;;;15.27;;
58553;SDS011;48119;53.218;6.576;2023-05-07T11:37:21;22.73;;;17.02;;
58553;SDS011;48119;53.218;6.576;2023-05-07T11:39:49;22.15;;;15.45;;
58553;SDS011;48119;53.218;6.576;2023-05-07T11:42:29;16.10;;;14.00;;
58553;SDS011;48119;53.218;6.576;2023-05-07T11:44:55;18.13;;;14.15;;
58553;SDS011;48119;53.218;6.576;2023-05-07T11:47:22;18.85;;;14.43;;
58553;SDS011;48119;53.218;6.576;2023-05-07T11:49:52;18.48;;;14.18;;
58553;SDS011;48119;53.218;6.576;2023-05-07T11:52:20;19.02;;;14.02;;
58553;SDS011;48119;53.218;6.576;2023-05-07T11:54:51;19.85;;;15.45;;
58553;SDS011;48119;53.218;6.576;2023-05-07T11:57:19;16.02;;;13.68;;
58553;SDS011;48119;53.218;6.576;2023-05-07T11:59:45;16.23;;;13.77;;
58553;SDS011;48119;53.218;6.576;2023-05-07T12:02:13;16.60;;;14.43;;
58553;SDS011;48119;53.218;6.576;2023-05-07T12:04:40;18.52;;;14.35;;
58553;SDS011;48119;53.218;6.576;2023-05-07T12:07:15;16.08;;;13.35;;
58553;SDS011;48119;53.218;6.576;2023-05-07T12:09:44;17.15;;;14.00;;
58553;SDS011;48119;53.218;6.576;2023-05-07T12:12:11;16.48;;;13.55;;
58553;SDS011;48119;53.218;6.576;2023-05-07T12:14:41;17.35;;;13.68;;
58553;SDS011;48119;53.218;6.576;2023-05-07T12:17:08;17.45;;;14.10;;
58553;SDS011;48119;53.218;6.576;2023-05-07T12:19:36;16.85;;;13.45;;
58553;SDS011;48119;53.218;6.576;2023-05-07T12:22:03;15.35;;;13.60;;
58553;SDS011;48119;53.218;6.576;2023-05-07T12:24:42;16.88;;;13.30;;
58553;SDS011;48119;53.218;6.576;2023-05-07T12:27:21;15.43;;;13.13;;
58553;SDS011;48119;53.218;6.576;2023-05-07T12:29:47;14.70;;;12.48;;
58553;SDS011;48119;53.218;6.576;2023-05-07T12:32:14;15.05;;;12.88;;
58553;SDS011;48119;53.218;6.576;2023-05-07T12:34:45;15.45;;;12.77;;
58553;SDS011;48119;53.218;6.576;2023-05-07T12:37:14;17.08;;;13.95;;
58553;SDS011;48119;53.218;6.576;2023-05-07T12:39:44;17.55;;;13.90;;
58553;SDS011;48119;53.218;6.576;2023-05-07T12:42:16;15.70;;;13.32;;
58553;SDS011;48119;53.218;6.576;2023-05-07T12:44:45;16.33;;;13.18;;
58553;SDS011;48119;53.218;6.576;2023-05-07T12:47:11;15.40;;;13.55;;
58553;SDS011;48119;53.218;6.576;2023-05-07T12:49:38;16.15;;;13.88;;
58553;SDS011;48119;53.218;6.576;2023-05-07T12:52:05;17.65;;;13.88;;
58553;SDS011;48119;53.218;6.576;2023-05-07T12:54:34;15.40;;;12.98;;
58553;SDS011;48119;53.218;6.576;2023-05-07T12:57:06;15.68;;;12.95;;
58553;SDS011;48119;53.218;6.576;2023-05-07T12:59:37;16.10;;;13.48;;
58553;SDS011;48119;53.218;6.576;2023-05-07T13:02:12;16.08;;;12.27;;
58553;SDS011;48119;53.218;6.576;2023-05-07T13:04:38;15.70;;;13.88;;
58553;SDS011;48119;53.218;6.576;2023-05-07T13:07:04;15.98;;;12.73;;
58553;SDS011;48119;53.218;6.576;2023-05-07T13:09:30;16.25;;;13.05;;
58553;SDS011;48119;53.218;6.576;2023-05-07T13:11:56;21.17;;;16.98;;
58553;SDS011;48119;53.218;6.576;2023-05-07T13:14:25;17.88;;;14.07;;
58553;SDS011;48119;53.218;6.576;2023-05-07T13:16:50;17.48;;;15.55;;
58553;SDS011;48119;53.218;6.576;2023-05-07T13:19:16;16.15;;;13.02;;
58553;SDS011;48119;53.218;6.576;2023-05-07T13:21:42;16.92;;;12.95;;
58553;SDS011;48119;53.218;6.576;2023-05-07T13:24:08;16.02;;;13.63;;
58553;SDS011;48119;53.218;6.576;2023-05-07T13:26:34;17.92;;;14.98;;
58553;SDS011;48119;53.218;6.576;2023-05-07T13:29:00;17.92;;;15.52;;
58553;SDS011;48119;53.218;6.576;2023-05-07T13:31:26;14.77;;;13.25;;
58553;SDS011;48119;53.218;6.576;2023-05-07T13:33:52;15.10;;;13.50;;
58553;SDS011;48119;53.218;6.576;2023-05-07T13:36:17;15.90;;;13.35;;
58553;SDS011;48119;53.218;6.576;2023-05-07T13:38:43;17.35;;;13.57;;
58553;SDS011;48119;53.218;6.576;2023-05-07T13:41:09;15.93;;;12.85;;
58553;SDS011;48119;53.218;6.576;2023-05-07T13:43:35;16.30;;;14.55;;
58553;SDS011;48119;53.218;6.576;2023-05-07T13:46:01;16.20;;;14.50;;
58553;SDS011;48119;53.218;6.576;2023-05-07T13:48:26;15.95;;;13.82;;
58553;SDS011;48119;53.218;6.576;2023-05-07T13:50:53;18.23;;;14.38;;
58553;SDS011;48119;53.218;6.576;2023-05-07T13:53:19;15.45;;;13.50;;
58553;SDS011;48119;53.218;6.576;2023-05-07T13:55:45;16.88;;;13.98;;
58553;SDS011;48119;53.218;6.576;2023-05-07T13:58:10;17.00;;;14.45;;
58553;SDS011;48119;53.218;6.576;2023-05-07T14:00:37;14.10;;;12.63;;
58553;SDS011;48119;53.218;6.576;2023-05-07T14:03:03;17.65;;;14.25;;
58553;SDS011;48119;53.218;6.576;2023-05-07T14:05:29;17.58;;;13.15;;
58553;SDS011;48119;53.218;6.576;2023-05-07T14:07:59;14.77;;;13.18;;
58553;SDS011;48119;53.218;6.576;2023-05-07T14:10:25;15.32;;;13.57;;
58553;SDS011;48119;53.218;6.576;2023-05-07T14:12:51;13.85;;;12.35;;
58553;SDS011;48119;53.218;6.576;2023-05-07T14:15:17;14.85;;;13.35;;
58553;SDS011;48119;53.218;6.576;2023-05-07T14:17:43;14.18;;;12.68;;
58553;SDS011;48119;53.218;6.576;2023-05-07T14:20:10;14.13;;;12.60;;
58553;SDS011;48119;53.218;6.576;2023-05-07T14:22:36;14.90;;;13.00;;
58553;SDS011;48119;53.218;6.576;2023-05-07T14:25:02;14.45;;;12.75;;
58553;SDS011;48119;53.218;6.576;2023-05-07T14:27:28;13.73;;;12.23;;
58553;SDS011;48119;53.218;6.576;2023-05-07T14:29:54;14.05;;;12.15;;
58553;SDS011;48119;53.218;6.576;2023-05-07T14:32:20;13.30;;;11.55;;